sensor_id;sensor_type;location;lat;lon;timestamp;pressure;altitude;pressure_sealevel;temperature;humidity
7433;BME280;32233;49.500;7.764;2023-08-06T00:00:30;97558.09;;;14.35;100.00
7433;BME280;32233;49.500;7.764;2023-08-06T00:02:56;97563.06;;;14.49;100.00
7433;BME280;32233;49.500;7.764;2023-08-06T00:05:23;97550.25;;;14.46;100.00
7433;BME280;32233;49.500;7.764;2023-08-06T00:07:50;97553.13;;;14.44;100.00
7433;BME280;32233;49.500;7.764;2023-08-06T00:10:17;97544.94;;;14.46;100.00
7433;BME280;32233;49.500;7.764;2023-08-06T00:12:44;97546.06;;;14.50;100.00
7433;BME280;32233;49.500;7.764;2023-08-06T00:15:11;97546.53;;;14.47;100.00
7433;BME280;32233;49.500;7.764;2023-08-06T00:17:38;97534.97;;;14.36;100.00
7433;BME280;32233;49.500;7.764;2023-08-06T00:20:05;97539.91;;;14.27;100.00
7433;BME280;32233;49.500;7.764;2023-08-06T00:22:37;97531.19;;;14.32;100.00
7433;BME280;32233;49.500;7.764;2023-08-06T00:25:05;97536.59;;;14.37;100.00
7433;BME280;32233;49.500;7.764;2023-08-06T00:27:31;97535.06;;;14.24;100.00
7433;BME280;32233;49.500;7.764;2023-08-06T00:30:01;97525.56;;;14.28;100.00
7433;BME280;32233;49.500;7.764;2023-08-06T00:32:27;97526.31;;;14.24;100.00
7433;BME280;32233;49.500;7.764;2023-08-06T00:34:54;97517.78;;;14.22;100.00
7433;BME280;32233;49.500;7.764;2023-08-06T00:37:20;97525.03;;;14.26;100.00
7433;BME280;32233;49.500;7.764;2023-08-06T00:39:47;97512.53;;;14.27;100.00
7433;BME280;32233;49.500;7.764;2023-08-06T00:42:13;97508.22;;;14.21;100.00
7433;BME280;32233;49.500;7.764;2023-08-06T00:44:40;97509.19;;;14.15;100.00
7433;BME280;32233;49.500;7.764;2023-08-06T00:47:07;97510.13;;;14.25;100.00
7433;BME280;32233;49.500;7.764;2023-08-06T00:49:36;97508.81;;;14.28;100.00
7433;BME280;32233;49.500;7.764;2023-08-06T00:52:04;97509.19;;;14.36;100.00
7433;BME280;32233;49.500;7.764;2023-08-06T00:54:31;97505.59;;;14.48;100.00
7433;BME280;32233;49.500;7.764;2023-08-06T00:57:00;97504.78;;;14.47;100.00
7433;BME280;32233;49.500;7.764;2023-08-06T00:59:29;97493.19;;;14.53;100.00
7433;BME280;32233;49.500;7.764;2023-08-06T01:01:56;97501.41;;;14.52;100.00
7433;BME280;32233;49.500;7.764;2023-08-06T01:04:23;97495.59;;;14.55;100.00
7433;BME280;32233;49.500;7.764;2023-08-06T01:07:21;97500.28;;;14.48;100.00
7433;BME280;32233;49.500;7.764;2023-08-06T01:13:11;97497.41;;;14.49;100.00
7433;BME280;32233;49.500;7.764;2023-08-06T01:15:46;97488.84;;;14.47;100.00
7433;BME280;32233;49.500;7.764;2023-08-06T01:18:13;97486.97;;;14.48;100.00
7433;BME280;32233;49.500;7.764;2023-08-06T01:20:40;97482.72;;;14.47;100.00
7433;BME280;32233;49.500;7.764;2023-08-06T01:23:07;97497.06;;;14.46;100.00
7433;BME280;32233;49.500;7.764;2023-08-06T01:25:38;97492.78;;;14.45;100.00
7433;BME280;32233;49.500;7.764;2023-08-06T01:28:12;97487.19;;;14.41;100.00
7433;BME280;32233;49.500;7.764;2023-08-06T01:30:41;97499.06;;;14.33;100.00
7433;BME280;32233;49.500;7.764;2023-08-06T01:33:13;97497.44;;;14.32;100.00
7433;BME280;32233;49.500;7.764;2023-08-06T01:35:42;97495.97;;;14.42;100.00
7433;BME280;32233;49.500;7.764;2023-08-06T01:38:09;97493.75;;;14.33;100.00
7433;BME280;32233;49.500;7.764;2023-08-06T01:40:36;97488.13;;;14.30;100.00
7433;BME280;32233;49.500;7.764;2023-08-06T01:43:02;97487.81;;;14.26;100.00
7433;BME280;32233;49.500;7.764;2023-08-06T01:45:29;97489.66;;;14.26;100.00
7433;BME280;32233;49.500;7.764;2023-08-06T01:47:55;97488.56;;;14.22;100.00
7433;BME280;32233;49.500;7.764;2023-08-06T01:50:23;97485.09;;;14.21;100.00
7433;BME280;32233;49.500;7.764;2023-08-06T01:52:51;97477.91;;;14.22;100.00
7433;BME280;32233;49.500;7.764;2023-08-06T01:55:17;97482.63;;;14.15;100.00
7433;BME280;32233;49.500;7.764;2023-08-06T01:57:44;97469.59;;;14.13;100.00
7433;BME280;32233;49.500;7.764;2023-08-06T02:00:11;97471.63;;;14.06;100.00
7433;BME280;32233;49.500;7.764;2023-08-06T02:02:38;97474.59;;;14.09;100.00
7433;BME280;32233;49.500;7.764;2023-08-06T02:05:07;97475.50;;;14.20;100.00
7433;BME280;32233;49.500;7.764;2023-08-06T02:07:33;97465.31;;;14.12;100.00
7433;BME280;32233;49.500;7.764;2023-08-06T02:10:00;97461.25;;;14.04;100.00
7433;BME280;32233;49.500;7.764;2023-08-06T02:12:26;97448.44;;;14.01;100.00
7433;BME280;32233;49.500;7.764;2023-08-06T02:14:53;97445.31;;;14.04;100.00
7433;BME280;32233;49.500;7.764;2023-08-06T02:17:19;97443.13;;;14.01;100.00
7433;BME280;32233;49.500;7.764;2023-08-06T02:19:46;97446.22;;;13.93;100.00
7433;BME280;32233;49.500;7.764;2023-08-06T02:22:13;97447.06;;;13.99;100.00
7433;BME280;32233;49.500;7.764;2023-08-06T02:24:40;97450.41;;;13.89;100.00
7433;BME280;32233;49.500;7.764;2023-08-06T02:27:09;97455.28;;;13.75;100.00
7433;BME280;32233;49.500;7.764;2023-08-06T02:29:36;97452.50;;;13.65;100.00
7433;BME280;32233;49.500;7.764;2023-08-06T02:32:03;97451.53;;;13.54;100.00
7433;BME280;32233;49.500;7.764;2023-08-06T02:34:30;97447.56;;;13.35;100.00
7433;BME280;32233;49.500;7.764;2023-08-06T02:36:57;97443.69;;;13.26;100.00
7433;BME280;32233;49.500;7.764;2023-08-06T02:39:23;97437.38;;;13.27;100.00
7433;BME280;32233;49.500;7.764;2023-08-06T02:41:50;97436.91;;;13.18;100.00
7433;BME280;32233;49.500;7.764;2023-08-06T02:44:17;97443.84;;;13.19;100.00
7433;BME280;32233;49.500;7.764;2023-08-06T02:46:45;97441.19;;;13.19;100.00
7433;BME280;32233;49.500;7.764;2023-08-06T02:49:12;97434.84;;;13.20;100.00
7433;BME280;32233;49.500;7.764;2023-08-06T02:51:38;97438.28;;;13.21;100.00
7433;BME280;32233;49.500;7.764;2023-08-06T02:54:05;97437.66;;;13.13;100.00
7433;BME280;32233;49.500;7.764;2023-08-06T02:56:34;97436.03;;;13.12;100.00
7433;BME280;32233;49.500;7.764;2023-08-06T02:59:12;97442.41;;;13.11;100.00
7433;BME280;32233;49.500;7.764;2023-08-06T03:01:48;97443.28;;;13.17;100.00
7433;BME280;32233;49.500;7.764;2023-08-06T03:04:21;97443.47;;;13.10;100.00
7433;BME280;32233;49.500;7.764;2023-08-06T03:06:50;97443.13;;;13.07;100.00
7433;BME280;32233;49.500;7.764;2023-08-06T03:09:19;97431.78;;;13.11;100.00
7433;BME280;32233;49.500;7.764;2023-08-06T03:11:48;97437.41;;;13.15;100.00
7433;BME280;32233;49.500;7.764;2023-08-06T03:14:15;97446.25;;;13.04;100.00
7433;BME280;32233;49.500;7.764;2023-08-06T03:16:43;97428.50;;;13.04;100.00
7433;BME280;32233;49.500;7.764;2023-08-06T03:19:12;97425.91;;;13.09;100.00
7433;BME280;32233;49.500;7.764;2023-08-06T03:21:38;97419.00;;;13.08;100.00
7433;BME280;32233;49.500;7.764;2023-08-06T03:24:06;97420.47;;;12.99;100.00
7433;BME280;32233;49.500;7.764;2023-08-06T03:26:33;97427.28;;;12.95;100.00
7433;BME280;32233;49.500;7.764;2023-08-06T03:29:01;97428.81;;;12.91;100.00
7433;BME280;32233;49.500;7.764;2023-08-06T03:31:30;97427.28;;;12.95;100.00
7433;BME280;32233;49.500;7.764;2023-08-06T03:33:58;97417.72;;;12.94;100.00
7433;BME280;32233;49.500;7.764;2023-08-06T03:36:26;97422.22;;;12.94;100.00
7433;BME280;32233;49.500;7.764;2023-08-06T03:38:54;97424.56;;;12.90;100.00
7433;BME280;32233;49.500;7.764;2023-08-06T03:41:21;97425.19;;;12.80;100.00
7433;BME280;32233;49.500;7.764;2023-08-06T03:43:48;97421.31;;;12.71;100.00
7433;BME280;32233;49.500;7.764;2023-08-06T03:46:21;97425.19;;;12.80;100.00
7433;BME280;32233;49.500;7.764;2023-08-06T03:48:48;97428.88;;;12.79;100.00
7433;BME280;32233;49.500;7.764;2023-08-06T03:51:14;97421.88;;;12.73;100.00
7433;BME280;32233;49.500;7.764;2023-08-06T03:53:43;97422.78;;;12.62;100.00
7433;BME280;32233;49.500;7.764;2023-08-06T03:56:09;97429.66;;;12.63;100.00
7433;BME280;32233;49.500;7.764;2023-08-06T03:58:36;97427.41;;;12.55;100.00
7433;BME280;32233;49.500;7.764;2023-08-06T04:01:03;97432.13;;;12.53;100.00
7433;BME280;32233;49.500;7.764;2023-08-06T04:03:37;97436.88;;;12.51;100.00
7433;BME280;32233;49.500;7.764;2023-08-06T04:06:04;97435.03;;;12.51;100.00
7433;BME280;32233;49.500;7.764;2023-08-06T04:08:30;97427.31;;;12.50;100.00
7433;BME280;32233;49.500;7.764;2023-08-06T04:10:58;97425.47;;;12.50;100.00
7433;BME280;32233;49.500;7.764;2023-08-06T04:13:24;97432.47;;;12.56;100.00
7433;BME280;32233;49.500;7.764;2023-08-06T04:15:51;97427.88;;;12.52;100.00
7433;BME280;32233;49.500;7.764;2023-08-06T04:18:18;97427.47;;;12.43;100.00
7433;BME280;32233;49.500;7.764;2023-08-06T04:20:45;97424.81;;;12.43;100.00
7433;BME280;32233;49.500;7.764;2023-08-06T04:23:12;97435.16;;;12.45;100.00
7433;BME280;32233;49.500;7.764;2023-08-06T04:25:39;97428.03;;;12.45;100.00
7433;BME280;32233;49.500;7.764;2023-08-06T04:28:06;97416.94;;;12.48;100.00
7433;BME280;32233;49.500;7.764;2023-08-06T04:30:33;97422.75;;;12.45;100.00
7433;BME280;32233;49.500;7.764;2023-08-06T04:33:02;97422.16;;;12.43;100.00
7433;BME280;32233;49.500;7.764;2023-08-06T04:35:28;97420.56;;;12.42;100.00
7433;BME280;32233;49.500;7.764;2023-08-06T04:37:55;97427.47;;;12.43;100.00
7433;BME280;32233;49.500;7.764;2023-08-06T04:40:22;97423.13;;;12.37;100.00
7433;BME280;32233;49.500;7.764;2023-08-06T04:42:49;97428.03;;;12.45;100.00
7433;BME280;32233;49.500;7.764;2023-08-06T04:45:16;97431.38;;;12.40;100.00
7433;BME280;32233;49.500;7.764;2023-08-06T04:47:42;97429.56;;;12.41;100.00
7433;BME280;32233;49.500;7.764;2023-08-06T04:50:09;97436.13;;;12.38;100.00
7433;BME280;32233;49.500;7.764;2023-08-06T04:52:37;97430.38;;;12.42;100.00
7433;BME280;32233;49.500;7.764;2023-08-06T04:55:04;97435.31;;;12.38;100.00
7433;BME280;32233;49.500;7.764;2023-08-06T04:57:32;97431.28;;;12.35;100.00
7433;BME280;32233;49.500;7.764;2023-08-06T04:59:59;97430.56;;;12.40;100.00
7433;BME280;32233;49.500;7.764;2023-08-06T05:02:25;97431.50;;;12.46;100.00
7433;BME280;32233;49.500;7.764;2023-08-06T05:04:52;97427.88;;;12.52;100.00
7433;BME280;32233;49.500;7.764;2023-08-06T05:07:18;97433.66;;;12.49;100.00
7433;BME280;32233;49.500;7.764;2023-08-06T05:09:45;97436.22;;;12.44;100.00
7433;BME280;32233;49.500;7.764;2023-08-06T05:12:11;97433.91;;;12.47;100.00
7433;BME280;32233;49.500;7.764;2023-08-06T05:14:38;97431.50;;;12.46;100.00
7433;BME280;32233;49.500;7.764;2023-08-06T05:17:05;97434.63;;;12.43;100.00
7433;BME280;32233;49.500;7.764;2023-08-06T05:19:31;97434.88;;;12.41;100.00
7433;BME280;32233;49.500;7.764;2023-08-06T05:21:58;97436.06;;;12.50;100.00
7433;BME280;32233;49.500;7.764;2023-08-06T05:24:25;97428.97;;;12.39;100.00
7433;BME280;32233;49.500;7.764;2023-08-06T05:26:51;97434.38;;;12.44;100.00
7433;BME280;32233;49.500;7.764;2023-08-06T05:29:18;97430.56;;;12.40;100.00
7433;BME280;32233;49.500;7.764;2023-08-06T05:31:44;97431.88;;;12.37;100.00
7433;BME280;32233;49.500;7.764;2023-08-06T05:34:11;97428.03;;;12.45;100.00
7433;BME280;32233;49.500;7.764;2023-08-06T05:36:37;97421.59;;;12.41;100.00
7433;BME280;32233;49.500;7.764;2023-08-06T05:39:04;97428.03;;;12.45;100.00
7433;BME280;32233;49.500;7.764;2023-08-06T05:41:30;97428.25;;;12.44;100.00
7433;BME280;32233;49.500;7.764;2023-08-06T05:43:57;97433.66;;;12.49;100.00
7433;BME280;32233;49.500;7.764;2023-08-06T05:46:24;97429.88;;;12.45;100.00
7433;BME280;32233;49.500;7.764;2023-08-06T05:48:50;97438.88;;;12.44;100.00
7433;BME280;32233;49.500;7.764;2023-08-06T05:51:17;97433.19;;;12.52;100.00
7433;BME280;32233;49.500;7.764;2023-08-06T05:53:44;97437.63;;;12.63;100.00
7433;BME280;32233;49.500;7.764;2023-08-06T05:56:12;97438.34;;;12.58;100.00
7433;BME280;32233;49.500;7.764;2023-08-06T05:58:39;97435.84;;;12.69;100.00
7433;BME280;32233;49.500;7.764;2023-08-06T06:01:05;97439.63;;;12.73;100.00
7433;BME280;32233;49.500;7.764;2023-08-06T06:03:32;97437.38;;;12.81;100.00
7433;BME280;32233;49.500;7.764;2023-08-06T06:06:00;97433.53;;;12.89;100.00
7433;BME280;32233;49.500;7.764;2023-08-06T06:08:27;97437.50;;;13.03;100.00
7433;BME280;32233;49.500;7.764;2023-08-06T06:10:54;97437.03;;;13.06;100.00
7433;BME280;32233;49.500;7.764;2023-08-06T06:13:20;97444.25;;;13.11;100.00
7433;BME280;32233;49.500;7.764;2023-08-06T06:15:47;97435.41;;;13.05;100.00
7433;BME280;32233;49.500;7.764;2023-08-06T06:18:14;97438.44;;;12.97;100.00
7433;BME280;32233;49.500;7.764;2023-08-06T06:20:40;97444.88;;;13.01;100.00
7433;BME280;32233;49.500;7.764;2023-08-06T06:23:07;97447.06;;;13.04;100.00
7433;BME280;32233;49.500;7.764;2023-08-06T06:25:33;97449.78;;;13.09;100.00
7433;BME280;32233;49.500;7.764;2023-08-06T06:28:00;97450.28;;;13.06;100.00
7433;BME280;32233;49.500;7.764;2023-08-06T06:30:26;97447.31;;;13.20;100.00
7433;BME280;32233;49.500;7.764;2023-08-06T06:32:53;97456.53;;;13.17;100.00
7433;BME280;32233;49.500;7.764;2023-08-06T06:35:19;97460.78;;;13.18;100.00
7433;BME280;32233;49.500;7.764;2023-08-06T06:37:46;97460.25;;;13.16;100.00
7433;BME280;32233;49.500;7.764;2023-08-06T06:40:12;97456.63;;;13.22;100.00
7433;BME280;32233;49.500;7.764;2023-08-06T06:42:39;97455.66;;;13.11;100.00
7433;BME280;32233;49.500;7.764;2023-08-06T06:45:08;97453.81;;;13.12;100.00
7433;BME280;32233;49.500;7.764;2023-08-06T06:47:34;97464.56;;;13.05;100.00
7433;BME280;32233;49.500;7.764;2023-08-06T06:50:01;97461.69;;;13.07;100.00
7433;BME280;32233;49.500;7.764;2023-08-06T06:52:28;97455.50;;;13.01;100.00
7433;BME280;32233;49.500;7.764;2023-08-06T06:54:54;97460.06;;;13.06;100.00
7433;BME280;32233;49.500;7.764;2023-08-06T06:57:21;97457.91;;;13.03;100.00
7433;BME280;32233;49.500;7.764;2023-08-06T06:59:47;97462.66;;;13.01;100.00
7433;BME280;32233;49.500;7.764;2023-08-06T07:02:14;97464.50;;;13.00;100.00
7433;BME280;32233;49.500;7.764;2023-08-06T07:04:40;97469.16;;;13.10;100.00
7433;BME280;32233;49.500;7.764;2023-08-06T07:07:07;97479.78;;;13.10;100.00
7433;BME280;32233;49.500;7.764;2023-08-06T07:09:33;97474.50;;;13.44;100.00
7433;BME280;32233;49.500;7.764;2023-08-06T07:12:00;97470.38;;;13.53;100.00
7433;BME280;32233;49.500;7.764;2023-08-06T07:14:28;97472.03;;;13.98;100.00
7433;BME280;32233;49.500;7.764;2023-08-06T07:16:54;97469.94;;;14.22;100.00
7433;BME280;32233;49.500;7.764;2023-08-06T07:19:21;97469.59;;;14.13;100.00
7433;BME280;32233;49.500;7.764;2023-08-06T07:21:48;97470.63;;;13.90;100.00
7433;BME280;32233;49.500;7.764;2023-08-06T07:24:14;97475.44;;;13.93;100.00
7433;BME280;32233;49.500;7.764;2023-08-06T07:26:41;97468.75;;;13.91;100.00
7433;BME280;32233;49.500;7.764;2023-08-06T07:29:07;97475.88;;;13.85;100.00
7433;BME280;32233;49.500;7.764;2023-08-06T07:31:34;97469.19;;;13.82;100.00
7433;BME280;32233;49.500;7.764;2023-08-06T07:34:00;97477.16;;;13.82;100.00
7433;BME280;32233;49.500;7.764;2023-08-06T07:36:27;97477.50;;;13.69;100.00
7433;BME280;32233;49.500;7.764;2023-08-06T07:38:53;97484.38;;;13.65;100.00
7433;BME280;32233;49.500;7.764;2023-08-06T07:41:23;97487.03;;;13.65;100.00
7433;BME280;32233;49.500;7.764;2023-08-06T07:43:49;97485.91;;;13.61;100.00
7433;BME280;32233;49.500;7.764;2023-08-06T07:46:16;97484.69;;;13.69;100.00
7433;BME280;32233;49.500;7.764;2023-08-06T07:48:43;97487.97;;;13.76;100.00
7433;BME280;32233;49.500;7.764;2023-08-06T07:51:09;97482.16;;;13.79;100.00
7433;BME280;32233;49.500;7.764;2023-08-06T07:53:36;97480.16;;;13.69;100.00
7433;BME280;32233;49.500;7.764;2023-08-06T07:56:03;97485.75;;;13.68;100.00
7433;BME280;32233;49.500;7.764;2023-08-06T07:58:29;97470.03;;;13.66;100.00
7433;BME280;32233;49.500;7.764;2023-08-06T08:00:56;97481.97;;;13.85;100.00
7433;BME280;32233;49.500;7.764;2023-08-06T08:03:22;97488.97;;;14.13;100.00
7433;BME280;32233;49.500;7.764;2023-08-06T08:05:49;97477.44;;;15.38;100.00
7433;BME280;32233;49.500;7.764;2023-08-06T08:08:16;97474.41;;;15.24;100.00
7433;BME280;32233;49.500;7.764;2023-08-06T08:10:42;97479.63;;;15.09;100.00
7433;BME280;32233;49.500;7.764;2023-08-06T08:13:09;97479.00;;;14.70;100.00
7433;BME280;32233;49.500;7.764;2023-08-06T08:15:36;97469.44;;;14.47;100.00
7433;BME280;32233;49.500;7.764;2023-08-06T08:18:03;97473.50;;;14.32;100.00
7433;BME280;32233;49.500;7.764;2023-08-06T08:20:29;97482.00;;;14.07;100.00
7433;BME280;32233;49.500;7.764;2023-08-06T08:22:59;97485.09;;;14.21;100.00
7433;BME280;32233;49.500;7.764;2023-08-06T08:25:27;97486.19;;;14.47;100.00
7433;BME280;32233;49.500;7.764;2023-08-06T08:27:56;97488.16;;;14.57;100.00
7433;BME280;32233;49.500;7.764;2023-08-06T08:30:23;97480.41;;;14.50;100.00
7433;BME280;32233;49.500;7.764;2023-08-06T08:32:51;97472.09;;;14.47;100.00
7433;BME280;32233;49.500;7.764;2023-08-06T08:35:18;97476.34;;;14.48;100.00
7433;BME280;32233;49.500;7.764;2023-08-06T08:37:45;97482.81;;;14.30;100.00
7433;BME280;32233;49.500;7.764;2023-08-06T08:40:14;97480.31;;;14.23;100.00
7433;BME280;32233;49.500;7.764;2023-08-06T08:42:40;97483.66;;;14.13;100.00
7433;BME280;32233;49.500;7.764;2023-08-06T08:45:11;97486.56;;;14.12;100.00
7433;BME280;32233;49.500;7.764;2023-08-06T08:47:41;97475.81;;;14.02;100.00
7433;BME280;32233;49.500;7.764;2023-08-06T08:50:09;97473.75;;;13.87;100.00
7433;BME280;32233;49.500;7.764;2023-08-06T08:52:38;97479.50;;;13.79;100.00
7433;BME280;32233;49.500;7.764;2023-08-06T08:55:07;97488.69;;;13.71;100.00
7433;BME280;32233;49.500;7.764;2023-08-06T08:57:34;97484.91;;;13.67;100.00
7433;BME280;32233;49.500;7.764;2023-08-06T09:00:01;97488.72;;;13.54;100.00
7433;BME280;32233;49.500;7.764;2023-08-06T09:02:28;97488.97;;;13.53;100.00
7433;BME280;32233;49.500;7.764;2023-08-06T09:04:59;97498.88;;;13.41;100.00
7433;BME280;32233;49.500;7.764;2023-08-06T09:07:32;97495.56;;;13.33;100.00
7433;BME280;32233;49.500;7.764;2023-08-06T09:10:02;97493.56;;;13.24;100.00
7433;BME280;32233;49.500;7.764;2023-08-06T09:12:32;97502.41;;;13.29;100.00
7433;BME280;32233;49.500;7.764;2023-08-06T09:14:58;97508.13;;;13.38;100.00
7433;BME280;32233;49.500;7.764;2023-08-06T09:17:25;97511.66;;;13.44;100.00
7433;BME280;32233;49.500;7.764;2023-08-06T09:19:52;97510.94;;;13.48;100.00
7433;BME280;32233;49.500;7.764;2023-08-06T09:22:18;97511.09;;;13.42;100.00
7433;BME280;32233;49.500;7.764;2023-08-06T09:24:45;97515.59;;;13.41;100.00
7433;BME280;32233;49.500;7.764;2023-08-06T09:27:12;97521.16;;;13.40;100.00
7433;BME280;32233;49.500;7.764;2023-08-06T09:29:43;97521.72;;;13.42;100.00
7433;BME280;32233;49.500;7.764;2023-08-06T09:32:10;97524.63;;;13.40;100.00
7433;BME280;32233;49.500;7.764;2023-08-06T09:34:39;97531.28;;;13.43;100.00
7433;BME280;32233;49.500;7.764;2023-08-06T09:37:06;97538.09;;;13.38;100.00
7433;BME280;32233;49.500;7.764;2023-08-06T09:39:32;97539.09;;;13.32;100.00
7433;BME280;32233;49.500;7.764;2023-08-06T09:42:00;97543.00;;;13.30;100.00
7433;BME280;32233;49.500;7.764;2023-08-06T09:44:31;97557.41;;;13.34;100.00
7433;BME280;32233;49.500;7.764;2023-08-06T09:47:00;97562.41;;;13.30;100.00
7433;BME280;32233;49.500;7.764;2023-08-06T09:52:00;97574.47;;;13.38;100.00
7433;BME280;32233;49.500;7.764;2023-08-06T09:54:27;97577.50;;;13.30;100.00
7433;BME280;32233;49.500;7.764;2023-08-06T09:56:55;97590.00;;;13.18;100.00
7433;BME280;32233;49.500;7.764;2023-08-06T09:59:23;97587.84;;;13.14;100.00
7433;BME280;32233;49.500;7.764;2023-08-06T10:01:51;97587.94;;;13.20;100.00
7433;BME280;32233;49.500;7.764;2023-08-06T10:04:19;97587.59;;;13.16;100.00
7433;BME280;32233;49.500;7.764;2023-08-06T10:06:52;97601.13;;;13.14;100.00
7433;BME280;32233;49.500;7.764;2023-08-06T10:09:19;97601.25;;;13.08;100.00
7433;BME280;32233;49.500;7.764;2023-08-06T10:11:51;97604.47;;;13.10;100.00
7433;BME280;32233;49.500;7.764;2023-08-06T10:14:24;97619.25;;;13.06;100.00
7433;BME280;32233;49.500;7.764;2023-08-06T10:16:53;97606.91;;;13.11;100.00
7433;BME280;32233;49.500;7.764;2023-08-06T10:19:21;97609.56;;;13.11;100.00
7433;BME280;32233;49.500;7.764;2023-08-06T10:24:54;97620.91;;;13.35;100.00
7433;BME280;32233;49.500;7.764;2023-08-06T10:27:32;97615.66;;;13.41;100.00
7433;BME280;32233;49.500;7.764;2023-08-06T10:32:49;97617.69;;;13.50;100.00
7433;BME280;32233;49.500;7.764;2023-08-06T10:35:29;97616.41;;;13.53;100.00
7433;BME280;32233;49.500;7.764;2023-08-06T10:40:32;97616.16;;;13.54;100.00
7433;BME280;32233;49.500;7.764;2023-08-06T10:43:00;97636.84;;;13.69;100.00
7433;BME280;32233;49.500;7.764;2023-08-06T10:45:27;97640.31;;;13.86;100.00
7433;BME280;32233;49.500;7.764;2023-08-06T10:47:57;97655.84;;;13.95;100.00
7433;BME280;32233;49.500;7.764;2023-08-06T10:50:24;97660.75;;;14.03;100.00
7433;BME280;32233;49.500;7.764;2023-08-06T10:52:51;97653.50;;;14.15;100.00
7433;BME280;32233;49.500;7.764;2023-08-06T10:55:27;97668.50;;;14.21;100.00
7433;BME280;32233;49.500;7.764;2023-08-06T10:57:55;97666.84;;;14.20;100.00
7433;BME280;32233;49.500;7.764;2023-08-06T11:00:23;97670.56;;;14.19;100.00
7433;BME280;32233;49.500;7.764;2023-08-06T11:02:53;97678.06;;;14.22;100.00
7433;BME280;32233;49.500;7.764;2023-08-06T11:05:20;97680.78;;;14.27;100.00
7433;BME280;32233;49.500;7.764;2023-08-06T11:07:46;97685.63;;;14.30;100.00
7433;BME280;32233;49.500;7.764;2023-08-06T11:10:15;97689.50;;;14.23;100.00
7433;BME280;32233;49.500;7.764;2023-08-06T11:12:41;97680.78;;;14.27;100.00
7433;BME280;32233;49.500;7.764;2023-08-06T11:15:09;97687.28;;;14.36;100.00
7433;BME280;32233;49.500;7.764;2023-08-06T11:17:40;97688.25;;;14.47;100.00
7433;BME280;32233;49.500;7.764;2023-08-06T11:20:07;97683.19;;;14.63;100.00
7433;BME280;32233;49.500;7.764;2023-08-06T11:22:35;97694.53;;;14.75;100.00
7433;BME280;32233;49.500;7.764;2023-08-06T11:25:02;97695.38;;;14.80;100.00
7433;BME280;32233;49.500;7.764;2023-08-06T11:27:29;97711.53;;;14.74;100.00
7433;BME280;32233;49.500;7.764;2023-08-06T11:29:56;97713.78;;;14.65;100.00
7433;BME280;32233;49.500;7.764;2023-08-06T11:32:22;97712.81;;;14.71;100.00
7433;BME280;32233;49.500;7.764;2023-08-06T11:34:49;97709.22;;;14.60;100.00
7433;BME280;32233;49.500;7.764;2023-08-06T11:37:16;97716.44;;;14.48;100.00
7433;BME280;32233;49.500;7.764;2023-08-06T11:39:47;97714.31;;;14.45;100.00
7433;BME280;32233;49.500;7.764;2023-08-06T11:42:16;97715.66;;;14.48;100.00
7433;BME280;32233;49.500;7.764;2023-08-06T11:44:43;97723.31;;;14.44;100.00
7433;BME280;32233;49.500;7.764;2023-08-06T11:47:14;97730.97;;;14.41;100.00
7433;BME280;32233;49.500;7.764;2023-08-06T11:49:47;97726.78;;;14.45;100.00
7433;BME280;32233;49.500;7.764;2023-08-06T11:52:18;97736.53;;;14.39;100.00
7433;BME280;32233;49.500;7.764;2023-08-06T11:55:15;97741.84;;;14.22;100.00
7433;BME280;32233;49.500;7.764;2023-08-06T11:57:45;97749.44;;;14.13;100.00
7433;BME280;32233;49.500;7.764;2023-08-06T12:00:14;97748.69;;;14.18;100.00
7433;BME280;32233;49.500;7.764;2023-08-06T12:02:44;97754.97;;;14.12;100.00
7433;BME280;32233;49.500;7.764;2023-08-06T12:05:16;97752.41;;;14.34;100.00
7433;BME280;32233;49.500;7.764;2023-08-06T12:07:45;97753.75;;;14.36;100.00
7433;BME280;32233;49.500;7.764;2023-08-06T12:10:12;97759.50;;;14.45;100.00
7433;BME280;32233;49.500;7.764;2023-08-06T12:12:39;97767.22;;;14.47;100.00
7433;BME280;32233;49.500;7.764;2023-08-06T12:15:07;97767.16;;;14.42;100.00
7433;BME280;32233;49.500;7.764;2023-08-06T12:17:34;97769.50;;;14.38;100.00
7433;BME280;32233;49.500;7.764;2023-08-06T12:20:05;97769.63;;;14.31;100.00
7433;BME280;32233;49.500;7.764;2023-08-06T12:22:33;97774.09;;;14.26;100.00
7433;BME280;32233;49.500;7.764;2023-08-06T12:25:10;97785.03;;;14.12;100.00
7433;BME280;32233;49.500;7.764;2023-08-06T12:27:40;97770.75;;;14.19;100.00
7433;BME280;32233;49.500;7.764;2023-08-06T12:30:09;97783.19;;;14.30;100.00
7433;BME280;32233;49.500;7.764;2023-08-06T12:32:36;97782.78;;;14.38;100.00
7433;BME280;32233;49.500;7.764;2023-08-06T12:35:03;97793.25;;;14.45;100.00
7433;BME280;32233;49.500;7.764;2023-08-06T12:37:31;97792.84;;;14.36;100.00
7433;BME280;32233;49.500;7.764;2023-08-06T12:39:57;97803.06;;;14.27;100.00
7433;BME280;32233;49.500;7.764;2023-08-06T12:42:24;97786.03;;;13.95;100.00
7433;BME280;32233;49.500;7.764;2023-08-06T12:44:51;97790.09;;;13.69;100.00
7433;BME280;32233;49.500;7.764;2023-08-06T12:47:18;97797.03;;;13.58;100.00
7433;BME280;32233;49.500;7.764;2023-08-06T12:49:45;97795.88;;;13.66;100.00
7433;BME280;32233;49.500;7.764;2023-08-06T12:52:12;97810.91;;;13.60;100.00
7433;BME280;32233;49.500;7.764;2023-08-06T12:54:41;97805.59;;;13.60;100.00
7433;BME280;32233;49.500;7.764;2023-08-06T12:57:08;97799.91;;;13.68;100.00
7433;BME280;32233;49.500;7.764;2023-08-06T12:59:34;97802.97;;;13.77;100.00
7433;BME280;32233;49.500;7.764;2023-08-06T13:02:03;97802.34;;;13.86;100.00
7433;BME280;32233;49.500;7.764;2023-08-06T13:04:30;97807.47;;;14.05;100.00
7433;BME280;32233;49.500;7.764;2023-08-06T13:06:57;97804.91;;;14.10;100.00
7433;BME280;32233;49.500;7.764;2023-08-06T13:09:24;97807.91;;;14.13;100.00
7433;BME280;32233;49.500;7.764;2023-08-06T13:11:52;97812.41;;;14.13;100.00
7433;BME280;32233;49.500;7.764;2023-08-06T13:14:19;97812.91;;;14.27;100.00
7433;BME280;32233;49.500;7.764;2023-08-06T13:16:46;97808.72;;;14.48;100.00